createdAt,value
2018-04-15T00:00:00.523Z,12.27
2018-04-15T00:01:00.197Z,12.28
2018-04-15T00:02:00.688Z,12.28
2018-04-15T00:02:59.739Z,12.20
2018-04-15T00:04:00.220Z,12.23
2018-04-15T00:05:01.265Z,12.28
2018-04-15T00:06:00.286Z,12.28
2018-04-15T00:07:00.111Z,12.38
2018-04-15T00:07:59.919Z,12.24
2018-04-15T00:08:59.448Z,12.31
2018-04-15T00:10:00.332Z,12.35
2018-04-15T00:11:00.691Z,12.37
2018-04-15T00:11:59.813Z,12.34
2018-04-15T00:12:59.281Z,12.34
2018-04-15T00:13:59.778Z,12.38
2018-04-15T00:14:59.261Z,12.42
2018-04-15T00:16:01.985Z,12.37
2018-04-15T00:17:06.609Z,12.35
2018-04-15T00:18:00.059Z,12.45
2018-04-15T00:18:59.969Z,12.35
2018-04-15T00:19:59.107Z,12.41
2018-04-15T00:21:00.101Z,12.34
2018-04-15T00:22:00.454Z,12.38
2018-04-15T00:23:00.397Z,12.37
2018-04-15T00:24:00.660Z,12.37
2018-04-15T00:24:59.253Z,12.45
2018-04-15T00:26:00.341Z,12.37
2018-04-15T00:27:00.202Z,12.38
2018-04-15T00:28:00.828Z,12.39
2018-04-15T00:29:00.974Z,12.39
2018-04-15T00:30:00.973Z,12.41
2018-04-15T00:31:00.987Z,12.41
2018-04-15T00:31:58.940Z,12.41
2018-04-15T00:32:59.288Z,12.37
2018-04-15T00:33:59.557Z,12.37
2018-04-15T00:34:59.692Z,12.39
2018-04-15T00:36:00.660Z,12.46
2018-04-15T00:37:01.488Z,12.46
2018-04-15T00:38:02.023Z,12.37
2018-04-15T00:39:00.397Z,12.46
2018-04-15T00:39:59.242Z,12.39
2018-04-15T00:41:00.375Z,12.34
2018-04-15T00:41:59.799Z,12.41
2018-04-15T00:43:02.744Z,12.42
2018-04-15T00:43:59.936Z,12.50
2018-04-15T00:45:00.960Z,12.50
2018-04-15T00:46:01.263Z,12.42
2018-04-15T00:47:00.751Z,12.42
2018-04-15T00:48:00.886Z,12.39
2018-04-15T00:49:01.917Z,12.23
2018-04-15T00:50:00.053Z,12.28
2018-04-15T00:50:59.273Z,12.32
2018-04-15T00:51:59.065Z,12.37
2018-04-15T00:52:59.642Z,12.32
2018-04-15T00:53:59.006Z,12.39
2018-04-15T00:55:00.396Z,12.35
2018-04-15T00:55:59.954Z,12.37
2018-04-15T00:56:59.277Z,12.28
2018-04-15T00:58:00.654Z,12.32
2018-04-15T00:58:59.270Z,12.29
2018-04-15T00:59:59.086Z,12.21
2018-04-15T01:01:00.002Z,12.37
2018-04-15T01:02:00.632Z,12.35
2018-04-15T01:03:00.362Z,12.31
2018-04-15T01:04:00.450Z,12.34
2018-04-15T01:04:59.630Z,12.19
2018-04-15T01:05:59.589Z,12.28
2018-04-15T01:06:59.627Z,12.27
2018-04-15T01:08:00.437Z,12.27
2018-04-15T01:08:59.885Z,12.17
2018-04-15T01:10:00.556Z,12.17
2018-04-15T01:10:59.122Z,12.10
2018-04-15T01:11:59.900Z,12.14
2018-04-15T01:13:01.300Z,12.05
2018-04-15T01:14:01.566Z,12.17
2018-04-15T01:15:01.574Z,12.10
2018-04-15T01:15:59.244Z,12.16
2018-04-15T01:16:59.603Z,12.14
2018-04-15T01:17:59.073Z,12.07
2018-04-15T01:19:02.327Z,12.19
2018-04-15T01:20:01.893Z,12.12
2018-04-15T01:21:02.261Z,12.04
2018-04-15T01:21:59.577Z,12.07
2018-04-15T01:23:00.052Z,12.10
2018-04-15T01:23:59.900Z,12.12
2018-04-15T01:25:01.736Z,12.07
2018-04-15T01:26:04.752Z,12.14
2018-04-15T01:27:02.136Z,12.16
2018-04-15T01:27:59.144Z,12.16
2018-04-15T01:29:00.112Z,12.20
2018-04-15T01:29:59.319Z,12.17
2018-04-15T01:31:01.135Z,12.20
2018-04-15T01:31:59.236Z,12.14
2018-04-15T01:32:59.532Z,12.12
2018-04-15T01:34:00.873Z,12.10
2018-04-15T01:34:59.339Z,12.09
2018-04-15T01:36:00.413Z,12.17
2018-04-15T01:37:00.008Z,12.20
2018-04-15T01:37:59.612Z,12.14
2018-04-15T01:38:59.123Z,12.19
2018-04-15T01:39:59.249Z,12.16
2018-04-15T01:40:59.955Z,12.24
2018-04-15T01:41:59.856Z,12.28
2018-04-15T01:42:59.604Z,12.27
2018-04-15T01:44:02.320Z,12.27
2018-04-15T01:44:59.974Z,12.23
2018-04-15T01:46:00.258Z,12.28
2018-04-15T01:47:02.757Z,12.24
2018-04-15T01:48:03.201Z,12.27
2018-04-15T01:49:02.571Z,12.37
2018-04-15T01:50:00.513Z,12.31
2018-04-15T01:51:00.420Z,12.32
2018-04-15T01:52:00.019Z,12.38
2018-04-15T01:53:01.806Z,12.28
2018-04-15T01:54:00.276Z,12.38
2018-04-15T01:55:00.662Z,12.38
2018-04-15T01:55:59.097Z,12.39
2018-04-15T01:56:59.530Z,12.34
2018-04-15T01:58:00.032Z,12.34
2018-04-15T01:59:04.496Z,12.41
2018-04-15T01:59:59.839Z,12.41
2018-04-15T02:01:00.998Z,12.41
2018-04-15T02:01:59.889Z,12.46
2018-04-15T02:02:59.961Z,12.35
2018-04-15T02:03:59.572Z,12.34
2018-04-15T02:05:00.798Z,12.24
2018-04-15T02:05:58.846Z,12.27
2018-04-15T02:07:00.680Z,12.20
2018-04-15T02:07:59.872Z,12.31
2018-04-15T02:09:00.452Z,12.32
2018-04-15T02:10:00.050Z,12.24
2018-04-15T02:11:00.800Z,12.19
2018-04-15T02:12:00.497Z,12.17
2018-04-15T02:13:01.989Z,12.20
2018-04-15T02:14:01.463Z,12.14
2018-04-15T02:15:02.396Z,12.16
2018-04-15T02:15:59.893Z,12.16
2018-04-15T02:16:59.941Z,12.20
2018-04-15T02:18:00.603Z,12.20
2018-04-15T02:19:00.221Z,12.14
2018-04-15T02:20:00.298Z,12.07
2018-04-15T02:21:02.456Z,12.09
2018-04-15T02:22:10.778Z,12.09
2018-04-15T02:23:01.766Z,12.16
2018-04-15T02:24:00.242Z,12.14
2018-04-15T02:25:01.877Z,12.20
2018-04-15T02:26:00.897Z,12.07
2018-04-15T02:26:59.843Z,12.04
2018-04-15T02:28:00.498Z,11.86
2018-04-15T02:29:01.692Z,11.94
2018-04-15T02:30:06.225Z,11.90
2018-04-15T02:31:02.116Z,11.96
2018-04-15T02:32:04.099Z,11.91
2018-04-15T02:33:04.154Z,11.90
2018-04-15T02:34:08.539Z,11.91
2018-04-15T02:35:01.319Z,11.91
2018-04-15T02:35:59.394Z,11.86
2018-04-15T02:37:00.403Z,11.91
2018-04-15T02:37:59.999Z,12.01
2018-04-15T02:39:04.241Z,11.91
2018-04-15T02:40:02.703Z,11.91
2018-04-15T02:40:59.606Z,11.96
2018-04-15T02:42:01.037Z,11.95
2018-04-15T02:43:00.871Z,11.96
2018-04-15T02:44:00.330Z,11.94
2018-04-15T02:45:01.674Z,11.86
2018-04-15T02:46:00.683Z,11.86
2018-04-15T02:47:01.696Z,11.83
2018-04-15T02:48:02.944Z,11.95
2018-04-15T02:49:04.340Z,11.90
2018-04-15T02:50:00.584Z,11.98
2018-04-15T02:51:05.597Z,11.94
2018-04-15T02:52:00.272Z,11.96
2018-04-15T02:53:01.090Z,12.01
2018-04-15T02:54:00.371Z,11.99
2018-04-15T02:55:09.064Z,12.02
2018-04-15T02:56:02.491Z,11.95
2018-04-15T02:57:04.552Z,11.94
2018-04-15T02:58:00.612Z,11.91
2018-04-15T02:59:08.757Z,11.86
2018-04-15T03:00:00.309Z,11.76
2018-04-15T03:01:03.957Z,11.72
2018-04-15T03:02:01.527Z,11.61
2018-04-15T03:03:02.266Z,11.72
2018-04-15T03:04:00.416Z,11.76
2018-04-15T03:05:03.576Z,11.86
2018-04-15T03:06:03.840Z,11.88
2018-04-15T03:07:00.788Z,11.79
2018-04-15T03:08:03.770Z,11.78
2018-04-15T03:09:03.483Z,11.70
2018-04-15T03:10:00.037Z,11.57
2018-04-15T03:11:03.121Z,11.58
2018-04-15T03:12:02.609Z,11.72
2018-04-15T03:13:00.614Z,11.60
2018-04-15T03:14:03.835Z,11.57
2018-04-15T03:15:02.704Z,11.65
2018-04-15T03:16:03.294Z,11.65
2018-04-15T03:17:03.095Z,11.70
2018-04-15T03:18:00.443Z,11.67
2018-04-15T03:19:04.635Z,11.76
2018-04-15T03:20:00.639Z,11.75
2018-04-15T03:21:05.210Z,11.69
2018-04-15T03:21:59.961Z,11.76
2018-04-15T03:23:01.922Z,11.70
2018-04-15T03:23:59.299Z,11.65
2018-04-15T03:25:00.799Z,11.67
2018-04-15T03:25:59.743Z,11.78
2018-04-15T03:27:00.925Z,11.75
2018-04-15T03:28:00.975Z,11.62
2018-04-15T03:29:02.811Z,11.76
2018-04-15T03:30:02.576Z,11.82
2018-04-15T03:31:01.372Z,11.88
2018-04-15T03:32:00.385Z,11.82
2018-04-15T03:33:02.735Z,11.72
2018-04-15T03:34:00.991Z,11.69
2018-04-15T03:35:02.431Z,11.70
2018-04-15T03:36:02.625Z,11.73
2018-04-15T03:37:01.831Z,11.88
2018-04-15T03:38:04.160Z,11.85
2018-04-15T03:39:00.874Z,11.85
2018-04-15T03:40:02.678Z,11.79
2018-04-15T03:41:01.452Z,11.85
2018-04-15T03:42:02.987Z,11.86
2018-04-15T03:43:01.769Z,11.73
2018-04-15T03:44:08.010Z,11.78
2018-04-15T03:45:02.629Z,11.75
2018-04-15T03:46:02.976Z,11.80
2018-04-15T03:47:01.239Z,11.67
2018-04-15T03:48:04.954Z,11.73
2018-04-15T03:49:02.487Z,11.62
2018-04-15T03:50:02.612Z,11.76
2018-04-15T03:51:01.721Z,11.73
2018-04-15T03:52:02.887Z,11.76
2018-04-15T03:53:01.908Z,11.72
2018-04-15T03:54:02.797Z,11.75
2018-04-15T03:55:02.680Z,11.76
2018-04-15T03:56:02.305Z,11.80
2018-04-15T03:57:02.918Z,11.70
2018-04-15T03:58:02.685Z,11.76
2018-04-15T03:59:03.565Z,11.80
2018-04-15T04:00:01.273Z,11.86
2018-04-15T04:01:03.124Z,11.76
2018-04-15T04:02:02.206Z,11.86
2018-04-15T04:03:03.955Z,11.82
2018-04-15T04:04:01.319Z,11.64
2018-04-15T04:05:04.120Z,11.75
2018-04-15T04:06:01.292Z,11.70
2018-04-15T04:07:02.016Z,11.72
2018-04-15T04:08:00.668Z,11.72
2018-04-15T04:09:06.123Z,11.67
2018-04-15T04:10:00.545Z,11.62
2018-04-15T04:11:05.844Z,11.58
2018-04-15T04:12:00.154Z,11.62
2018-04-15T04:13:03.688Z,11.57
2018-04-15T04:14:02.086Z,11.72
2018-04-15T04:15:03.661Z,11.58
2018-04-15T04:16:04.173Z,11.62
2018-04-15T04:17:05.337Z,11.57
2018-04-15T04:18:03.855Z,11.55
2018-04-15T04:19:03.468Z,11.49
2018-04-15T04:20:04.201Z,11.42
2018-04-15T04:21:03.101Z,11.52
2018-04-15T04:22:03.095Z,11.52
2018-04-15T04:23:00.199Z,11.49
2018-04-15T04:24:04.715Z,11.40
2018-04-15T04:25:00.564Z,11.24
2018-04-15T04:26:02.880Z,11.32
2018-04-15T04:26:59.085Z,11.22
2018-04-15T04:28:00.609Z,11.29
2018-04-15T04:29:01.512Z,11.32
2018-04-15T04:29:59.757Z,11.37
2018-04-15T04:31:00.839Z,11.40
2018-04-15T04:32:04.135Z,11.29
2018-04-15T04:32:59.245Z,11.40
2018-04-15T04:34:02.969Z,11.42
2018-04-15T04:35:01.868Z,11.47
2018-04-15T04:36:06.098Z,11.35
2018-04-15T04:37:00.536Z,11.42
2018-04-15T04:38:08.564Z,11.42
2018-04-15T04:39:01.742Z,11.39
2018-04-15T04:40:06.324Z,11.40
2018-04-15T04:41:03.324Z,11.28
2018-04-15T04:42:06.896Z,11.27
2018-04-15T04:43:02.489Z,11.36
2018-04-15T04:44:02.660Z,11.32
2018-04-15T04:45:00.903Z,11.33
2018-04-15T04:46:02.490Z,11.19
2018-04-15T04:47:00.876Z,11.14
2018-04-15T04:48:01.599Z,11.21
2018-04-15T04:49:02.004Z,11.19
2018-04-15T04:50:02.267Z,11.25
2018-04-15T04:51:01.544Z,11.24
2018-04-15T04:52:03.828Z,11.27
2018-04-15T04:53:04.260Z,11.22
2018-04-15T04:54:03.491Z,11.22
2018-04-15T04:55:02.032Z,11.21
2018-04-15T04:56:03.194Z,11.29
2018-04-15T04:57:04.863Z,11.21
2018-04-15T04:58:03.738Z,11.22
2018-04-15T04:59:01.401Z,11.24
2018-04-15T05:00:05.000Z,11.17
2018-04-15T05:01:01.209Z,11.15
2018-04-15T05:02:00.269Z,11.15
2018-04-15T05:03:05.732Z,11.18
2018-04-15T05:04:04.177Z,11.07
2018-04-15T05:05:03.036Z,11.14
2018-04-15T05:06:06.522Z,11.09
2018-04-15T05:07:00.850Z,11.11
2018-04-15T05:08:02.510Z,11.18
2018-04-15T05:09:04.100Z,11.11
2018-04-15T05:10:04.221Z,11.24
2018-04-15T05:11:02.729Z,11.10
2018-04-15T05:12:05.931Z,11.19
2018-04-15T05:13:00.949Z,11.19
2018-04-15T05:14:04.429Z,11.15
2018-04-15T05:15:01.111Z,11.14
2018-04-15T05:17:01.872Z,11.25
2018-04-15T05:18:02.702Z,11.24
2018-04-15T05:19:02.408Z,11.21
2018-04-15T05:21:03.201Z,11.28
2018-04-15T05:22:04.678Z,11.19
2018-04-15T05:23:05.747Z,11.24
2018-04-15T05:24:09.107Z,11.21
2018-04-15T05:25:07.864Z,11.22
2018-04-15T05:26:02.792Z,11.17
2018-04-15T05:27:03.328Z,11.18
2018-04-15T05:28:05.680Z,11.15
2018-04-15T05:29:11.349Z,11.14
2018-04-15T05:30:02.116Z,11.15
2018-04-15T05:31:02.732Z,11.17
2018-04-15T05:33:10.179Z,11.17
2018-04-15T05:34:06.061Z,11.11
2018-04-15T05:35:10.910Z,11.15
2018-04-15T05:36:08.787Z,11.21
2018-04-15T05:37:06.635Z,11.19
2018-04-15T05:38:02.408Z,11.10
2018-04-15T05:39:07.919Z,11.19
2018-04-15T05:40:06.590Z,11.21
2018-04-15T05:41:05.558Z,11.15
2018-04-15T05:42:01.732Z,11.22
2018-04-15T05:43:14.557Z,11.28
2018-04-15T05:44:08.648Z,11.27
2018-04-15T05:46:02.438Z,11.29
2018-04-15T05:47:02.287Z,11.27
2018-04-15T05:48:08.783Z,11.29
2018-04-15T05:49:07.042Z,11.37
2018-04-15T05:50:00.509Z,11.37
2018-04-15T05:51:01.525Z,11.40
2018-04-15T05:52:01.195Z,11.33
2018-04-15T05:53:02.114Z,11.42
2018-04-15T05:54:04.093Z,11.47
2018-04-15T05:55:05.720Z,11.42
2018-04-15T05:56:08.272Z,11.46
2018-04-15T05:57:04.663Z,11.47
2018-04-15T05:58:05.518Z,11.35
2018-04-15T05:59:04.757Z,11.42
2018-04-15T06:00:02.271Z,11.42
2018-04-15T06:01:04.893Z,11.49
2018-04-15T06:02:05.670Z,11.54
2018-04-15T06:03:04.297Z,11.51
2018-04-15T06:04:08.370Z,11.57
2018-04-15T06:05:11.362Z,11.61
2018-04-15T06:06:04.181Z,11.62
2018-04-15T06:07:04.464Z,11.61
2018-04-15T06:08:03.016Z,11.46
2018-04-15T06:09:03.491Z,11.62
2018-04-15T06:10:02.141Z,11.60
2018-04-15T06:11:05.755Z,11.57
2018-04-15T06:12:02.200Z,11.61
2018-04-15T06:13:06.161Z,11.67
2018-04-15T06:14:04.547Z,11.61
2018-04-15T06:15:03.146Z,11.65
2018-04-15T06:16:04.777Z,11.67
2018-04-15T06:17:04.674Z,11.64
2018-04-15T06:18:05.138Z,11.69
2018-04-15T06:19:05.640Z,11.62
2018-04-15T06:20:04.846Z,11.65
2018-04-15T06:21:05.533Z,11.69
2018-04-15T06:22:06.601Z,11.62
2018-04-15T06:23:03.428Z,11.73
2018-04-15T06:24:01.639Z,11.70
2018-04-15T06:25:02.138Z,11.60
2018-04-15T06:26:03.125Z,11.80
2018-04-15T06:27:09.162Z,11.78
2018-04-15T06:28:02.158Z,11.69
2018-04-15T06:30:10.592Z,11.94
2018-04-15T06:31:03.320Z,11.95
2018-04-15T06:32:03.181Z,11.96
2018-04-15T06:34:03.543Z,11.90
2018-04-15T06:35:08.170Z,11.94
2018-04-15T06:36:03.217Z,11.95
2018-04-15T06:38:00.647Z,11.98
2018-04-15T06:39:04.158Z,12.07
2018-04-15T06:40:02.521Z,12.05
2018-04-15T06:41:02.770Z,12.02
2018-04-15T06:42:02.328Z,12.04
2018-04-15T06:43:01.743Z,12.07
2018-04-15T06:44:00.409Z,12.07
2018-04-15T06:45:03.303Z,12.07
2018-04-15T06:46:06.443Z,12.07
2018-04-15T06:47:01.223Z,12.10
2018-04-15T06:48:01.859Z,12.04
2018-04-15T06:49:02.065Z,12.10
2018-04-15T06:50:04.561Z,12.24
2018-04-15T06:51:03.918Z,12.23
2018-04-15T06:52:11.999Z,12.24
2018-04-15T06:53:01.624Z,12.39
2018-04-15T06:54:01.675Z,12.29
2018-04-15T06:55:07.553Z,12.27
2018-04-15T06:56:03.732Z,12.31
2018-04-15T06:57:05.917Z,12.32
2018-04-15T06:58:03.182Z,12.28
2018-04-15T06:59:02.205Z,12.27
2018-04-15T07:00:03.114Z,12.31
2018-04-15T07:01:03.886Z,12.37
2018-04-15T07:02:03.669Z,12.28
2018-04-15T07:03:02.085Z,12.34
2018-04-15T07:04:04.428Z,12.45
2018-04-15T07:05:02.123Z,12.41
2018-04-15T07:06:01.090Z,12.39
2018-04-15T07:07:05.250Z,12.50
2018-04-15T07:08:00.425Z,12.53
2018-04-15T07:09:00.890Z,12.47
2018-04-15T07:10:07.332Z,12.46
2018-04-15T07:11:02.593Z,12.53
2018-04-15T07:12:07.583Z,12.53
2018-04-15T07:13:07.043Z,12.54
2018-04-15T07:14:02.847Z,12.54
2018-04-15T07:15:01.812Z,12.50
2018-04-15T07:15:59.909Z,12.71
2018-04-15T07:17:02.885Z,12.54
2018-04-15T07:18:07.992Z,12.57
2018-04-15T07:19:03.179Z,12.67
2018-04-15T07:20:02.071Z,12.56
2018-04-15T07:21:04.578Z,12.65
2018-04-15T07:22:05.384Z,12.71
2018-04-15T07:23:04.173Z,12.74
2018-04-15T07:24:03.750Z,12.83
2018-04-15T07:25:05.447Z,12.87
2018-04-15T07:26:05.164Z,12.93
2018-04-15T07:27:01.831Z,12.85
2018-04-15T07:28:00.504Z,12.96
2018-04-15T07:29:02.713Z,12.87
2018-04-15T07:30:04.771Z,13.05
2018-04-15T07:31:20.033Z,13.10
2018-04-15T07:32:01.838Z,13.11
2018-04-15T07:33:06.412Z,13.10
2018-04-15T07:34:03.527Z,13.17
2018-04-15T07:35:02.300Z,13.12
2018-04-15T07:36:07.088Z,13.41
2018-04-15T07:37:05.401Z,13.38
2018-04-15T07:38:01.059Z,13.39
2018-04-15T07:39:02.782Z,13.46
2018-04-15T07:40:01.687Z,13.60
2018-04-15T07:41:04.378Z,13.52
2018-04-15T07:42:03.005Z,13.55
2018-04-15T07:43:03.240Z,13.69
2018-04-15T07:44:00.565Z,13.78
2018-04-15T07:45:05.080Z,13.73
2018-04-15T07:46:03.394Z,13.79
2018-04-15T07:47:02.939Z,13.71
2018-04-15T07:48:05.633Z,13.69
2018-04-15T07:49:03.061Z,13.78
2018-04-15T07:50:03.953Z,13.87
2018-04-15T07:51:04.396Z,13.87
2018-04-15T07:52:02.140Z,13.97
2018-04-15T07:53:04.573Z,13.89
2018-04-15T07:54:03.748Z,13.92
2018-04-15T07:55:04.269Z,13.88
2018-04-15T07:56:05.555Z,13.88
2018-04-15T07:57:08.457Z,13.91
2018-04-15T07:58:00.955Z,14.07
2018-04-15T07:59:02.105Z,14.18
2018-04-15T08:00:04.929Z,14.15
2018-04-15T08:01:03.955Z,14.21
2018-04-15T08:02:06.375Z,14.20
2018-04-15T08:03:04.175Z,14.15
2018-04-15T08:04:04.683Z,14.14
2018-04-15T08:05:05.549Z,14.39
2018-04-15T08:06:03.464Z,14.42
2018-04-15T08:07:07.654Z,14.47
2018-04-15T08:08:00.662Z,14.50
2018-04-15T08:09:03.423Z,14.46
2018-04-15T08:10:01.616Z,14.68
2018-04-15T08:11:02.136Z,14.84
2018-04-15T08:12:16.666Z,15.01
2018-04-15T08:13:06.379Z,15.32
2018-04-15T08:14:11.148Z,15.51
2018-04-15T08:15:10.627Z,15.62
2018-04-15T08:16:01.530Z,16.39
2018-04-15T08:17:05.662Z,17.28
2018-04-15T08:18:04.649Z,18.72
2018-04-15T08:19:11.726Z,19.07
2018-04-15T08:21:15.580Z,19.59
2018-04-15T08:23:04.302Z,19.21
2018-04-15T08:24:09.344Z,19.23
2018-04-15T08:25:08.296Z,18.87
2018-04-15T08:26:07.842Z,18.44
2018-04-15T08:27:07.787Z,17.96
2018-04-15T08:30:08.270Z,18.66
2018-04-15T08:31:12.256Z,18.72
2018-04-15T08:32:03.172Z,18.76
2018-04-15T08:33:00.302Z,18.75
2018-04-15T08:34:11.166Z,18.52
2018-04-15T08:35:08.546Z,17.66
2018-04-15T08:37:23.793Z,17.72
2018-04-15T08:38:04.188Z,18.47
2018-04-15T08:39:06.161Z,18.67
2018-04-15T08:40:13.929Z,18.94
2018-04-15T08:42:12.150Z,18.18
2018-04-15T08:43:06.562Z,18.72
2018-04-15T08:44:08.708Z,18.87
2018-04-15T08:45:08.879Z,19.14
2018-04-15T08:46:05.106Z,18.95
2018-04-15T08:48:08.320Z,18.42
2018-04-15T08:49:29.184Z,18.14
2018-04-15T08:51:20.597Z,18.27
2018-04-15T08:52:05.878Z,18.37
2018-04-15T08:56:05.039Z,17.93
2018-04-15T08:57:07.713Z,17.89
2018-04-15T08:59:03.921Z,17.89
2018-04-15T09:02:07.217Z,17.64
2018-04-15T09:03:09.822Z,17.82
2018-04-15T09:04:05.874Z,18.47
2018-04-15T09:06:17.842Z,19.61
2018-04-15T09:07:03.837Z,20.87
2018-04-15T09:08:04.657Z,21.79
2018-04-15T09:09:08.520Z,23.16
2018-04-15T09:10:03.717Z,24.12
2018-04-15T09:11:12.127Z,24.64
2018-04-15T09:12:19.171Z,23.20
2018-04-15T09:14:12.200Z,22.68
2018-04-15T09:16:04.821Z,21.54
2018-04-15T09:17:08.256Z,21.10
2018-04-15T09:18:07.822Z,21.07
2018-04-15T09:19:09.919Z,20.94
2018-04-15T09:20:08.125Z,20.66
2018-04-15T09:21:08.305Z,20.92
2018-04-15T09:23:04.943Z,20.24
2018-04-15T09:24:04.280Z,21.09
2018-04-15T09:25:03.025Z,21.24
2018-04-15T09:27:05.300Z,23.28
2018-04-15T09:28:08.860Z,23.60
2018-04-15T09:29:07.180Z,24.50
2018-04-15T09:30:04.618Z,23.79
2018-04-15T09:31:07.314Z,23.95
2018-04-15T09:32:06.890Z,24.87
2018-04-15T09:35:12.644Z,21.86
2018-04-15T09:36:09.762Z,23.00
2018-04-15T09:37:03.984Z,23.20
2018-04-15T09:38:06.789Z,23.31
2018-04-15T09:39:06.616Z,22.54
2018-04-15T09:40:04.798Z,21.91
2018-04-15T09:41:09.440Z,22.36
2018-04-15T09:43:31.765Z,23.58
2018-04-15T09:44:31.775Z,23.19
2018-04-15T09:45:31.780Z,21.99
2018-04-15T09:46:31.782Z,20.57
2018-04-15T09:47:31.853Z,20.52
2018-04-15T09:48:31.813Z,21.47
2018-04-15T09:49:31.908Z,22.09
2018-04-15T09:50:31.840Z,22.75
2018-04-15T09:51:31.900Z,22.61
2018-04-15T09:52:31.917Z,23.28
2018-04-15T09:53:31.900Z,23.31
2018-04-15T09:54:31.907Z,21.92
2018-04-15T09:55:31.935Z,19.59
2018-04-15T09:56:31.924Z,18.35
2018-04-15T09:57:31.961Z,18.08
2018-04-15T09:58:31.973Z,18.20
2018-04-15T09:59:31.981Z,18.39
2018-04-15T10:00:32.018Z,18.67
2018-04-15T10:01:32.717Z,18.98
2018-04-15T10:02:32.040Z,18.78
2018-04-15T10:03:32.688Z,18.91
2018-04-15T10:04:32.052Z,18.82
2018-04-15T10:05:32.040Z,18.67
2018-04-15T10:06:32.065Z,18.69
2018-04-15T10:07:32.069Z,18.21
2018-04-15T10:08:32.102Z,18.02
2018-04-15T10:09:32.141Z,17.96
2018-04-15T10:10:32.115Z,17.89
2018-04-15T10:11:32.112Z,18.11
2018-04-15T10:12:32.692Z,18.42
2018-04-15T10:13:32.138Z,18.52
2018-04-15T10:14:32.140Z,18.98
2018-04-15T10:15:32.153Z,19.06
2018-04-15T10:16:32.195Z,18.84
2018-04-15T10:17:32.204Z,18.50
2018-04-15T10:18:32.179Z,18.54
2018-04-15T10:19:32.225Z,18.45
2018-04-15T10:20:32.204Z,18.48
2018-04-15T10:21:32.211Z,18.47
2018-04-15T10:22:32.231Z,18.84
2018-04-15T10:23:32.232Z,19.91
2018-04-15T10:24:32.253Z,19.63
2018-04-15T10:25:32.240Z,19.63
2018-04-15T10:26:32.253Z,19.78
2018-04-15T10:27:33.212Z,19.96
2018-04-15T10:28:32.272Z,19.87
2018-04-15T10:29:33.199Z,19.77
2018-04-15T10:30:32.294Z,19.77
2018-04-15T10:31:32.294Z,20.02
2018-04-15T10:32:32.312Z,21.09
2018-04-15T10:33:32.306Z,22.95
2018-04-15T10:34:32.325Z,22.88
2018-04-15T10:35:32.325Z,21.40
2018-04-15T10:36:32.335Z,21.58
2018-04-15T10:37:32.340Z,21.62
2018-04-15T10:38:32.340Z,20.54
2018-04-15T10:39:32.355Z,21.44
2018-04-15T10:40:32.364Z,22.25
2018-04-15T10:41:32.394Z,22.51
2018-04-15T10:42:32.404Z,22.02
2018-04-15T10:43:32.398Z,21.10
2018-04-15T10:44:33.211Z,20.42
2018-04-15T10:45:32.428Z,20.41
2018-04-15T10:46:32.437Z,20.29
2018-04-15T10:47:32.431Z,20.39
2018-04-15T10:48:32.473Z,20.85
2018-04-15T10:49:32.485Z,21.27
2018-04-15T10:50:32.464Z,21.07
2018-04-15T10:51:32.470Z,21.53
2018-04-15T10:52:32.479Z,22.90
2018-04-15T10:53:32.498Z,24.21
2018-04-15T10:54:32.493Z,24.99
2018-04-15T10:55:32.515Z,24.69
2018-04-15T10:56:32.533Z,23.61
2018-04-15T10:57:32.529Z,22.62
2018-04-15T10:58:32.595Z,21.43
2018-04-15T10:59:32.549Z,20.99
2018-04-15T11:00:32.603Z,21.06
2018-04-15T11:01:32.571Z,22.05
2018-04-15T11:02:32.586Z,22.88
2018-04-15T11:03:32.599Z,23.87
2018-04-15T11:04:32.620Z,24.65
2018-04-15T11:05:32.673Z,24.28
2018-04-15T11:06:32.627Z,24.30
2018-04-15T11:07:32.654Z,24.35
2018-04-15T11:08:32.663Z,24.15
2018-04-15T11:09:32.661Z,24.40
2018-04-15T11:10:32.683Z,24.34
2018-04-15T11:11:32.690Z,23.25
2018-04-15T11:12:32.701Z,23.27
2018-04-15T11:13:32.703Z,22.86
2018-04-15T11:14:32.730Z,22.58
2018-04-15T11:15:32.736Z,22.20
2018-04-15T11:16:32.792Z,22.33
2018-04-15T11:17:32.807Z,21.96
2018-04-15T11:18:32.764Z,21.79
2018-04-15T11:19:32.769Z,21.69
2018-04-15T11:20:32.779Z,21.68
2018-04-15T11:21:32.822Z,21.40
2018-04-15T11:22:32.806Z,21.10
2018-04-15T11:23:32.810Z,21.10
2018-04-15T11:24:33.326Z,21.10
2018-04-15T11:25:32.856Z,21.25
2018-04-15T11:26:32.835Z,21.49
2018-04-15T11:27:32.862Z,21.47
2018-04-15T11:28:32.861Z,21.44
2018-04-15T11:29:32.861Z,21.12
2018-04-15T11:30:32.865Z,21.22
2018-04-15T11:31:32.887Z,20.97
2018-04-15T11:32:33.029Z,20.42
2018-04-15T11:33:32.892Z,20.66
2018-04-15T11:34:32.886Z,20.92
2018-04-15T11:35:34.248Z,20.70
2018-04-15T11:36:33.748Z,20.69
2018-04-15T11:37:32.922Z,20.76
2018-04-15T11:38:32.967Z,20.69
2018-04-15T11:39:32.935Z,20.79
2018-04-15T11:40:32.940Z,20.77
2018-04-15T11:41:32.945Z,21.12
2018-04-15T11:42:32.953Z,20.52
2018-04-15T11:43:32.982Z,19.88
2018-04-15T11:44:32.965Z,19.50
2018-04-15T11:45:32.975Z,19.40
2018-04-15T11:46:33.037Z,19.33
2018-04-15T11:47:32.994Z,19.31
2018-04-15T11:48:32.988Z,19.08
2018-04-15T11:49:33.006Z,19.22
2018-04-15T11:50:33.006Z,19.32
2018-04-15T11:51:33.153Z,19.51
2018-04-15T11:52:33.025Z,19.63
2018-04-15T11:53:33.033Z,19.96
2018-04-15T11:54:33.094Z,20.55
2018-04-15T11:55:33.749Z,21.09
2018-04-15T11:56:33.046Z,21.27
2018-04-15T11:57:33.039Z,21.53
2018-04-15T11:58:33.083Z,21.67
2018-04-15T11:59:33.059Z,21.44
2018-04-15T12:00:33.063Z,21.31
2018-04-15T12:01:33.067Z,21.34
2018-04-15T12:02:33.079Z,21.14
2018-04-15T12:03:33.086Z,21.29
2018-04-15T12:04:33.091Z,21.46
2018-04-15T12:05:33.105Z,21.75
2018-04-15T12:06:33.118Z,21.82
2018-04-15T12:07:33.109Z,21.88
2018-04-15T12:08:33.178Z,22.22
2018-04-15T12:09:33.108Z,22.54
2018-04-15T12:10:33.135Z,22.61
2018-04-15T12:11:33.118Z,22.62
2018-04-15T12:12:33.131Z,22.18
2018-04-15T12:13:33.130Z,22.03
2018-04-15T12:14:33.145Z,22.05
2018-04-15T12:15:33.156Z,22.00
2018-04-15T12:16:33.152Z,21.86
2018-04-15T12:17:33.164Z,21.71
2018-04-15T12:18:33.172Z,21.90
2018-04-15T12:19:33.172Z,22.12
2018-04-15T12:20:33.179Z,22.14
2018-04-15T12:21:33.182Z,21.92
2018-04-15T12:22:33.192Z,21.91
2018-04-15T12:23:33.195Z,22.21
2018-04-15T12:24:33.207Z,22.25
2018-04-15T12:25:33.205Z,22.10
2018-04-15T12:26:33.223Z,21.92
2018-04-15T12:27:33.212Z,21.75
2018-04-15T12:28:33.223Z,20.85
2018-04-15T12:29:33.235Z,20.80
2018-04-15T12:30:33.275Z,20.66
2018-04-15T12:31:33.292Z,20.80
2018-04-15T12:32:33.249Z,20.69
2018-04-15T12:33:33.286Z,20.39
2018-04-15T12:34:33.266Z,20.13
2018-04-15T12:35:33.300Z,20.20
2018-04-15T12:36:33.278Z,20.32
2018-04-15T12:37:33.274Z,20.14
2018-04-15T12:38:33.290Z,20.24
2018-04-15T12:39:33.289Z,20.47
2018-04-15T12:40:33.290Z,20.43
2018-04-15T12:41:33.300Z,20.42
2018-04-15T12:42:33.318Z,20.28
2018-04-15T12:43:33.315Z,20.61
2018-04-15T12:44:33.329Z,20.36
2018-04-15T12:45:33.328Z,20.50
2018-04-15T12:46:33.497Z,20.51
2018-04-15T12:47:33.336Z,20.20
2018-04-15T12:48:33.355Z,20.14
2018-04-15T12:49:33.374Z,20.47
2018-04-15T12:50:33.353Z,20.48
2018-04-15T12:51:33.357Z,20.38
2018-04-15T12:52:33.375Z,20.39
2018-04-15T12:53:33.439Z,20.50
2018-04-15T12:54:33.372Z,20.50
2018-04-15T12:55:33.439Z,20.58
2018-04-15T12:56:33.398Z,20.58
2018-04-15T12:57:33.387Z,20.64
2018-04-15T12:58:33.397Z,20.87
2018-04-15T12:59:33.412Z,20.84
2018-04-15T13:00:33.407Z,20.87
2018-04-15T13:01:33.415Z,20.89
2018-04-15T13:02:33.431Z,21.01
2018-04-15T13:03:33.422Z,20.80
2018-04-15T13:04:33.443Z,20.57
2018-04-15T13:05:33.450Z,20.70
2018-04-15T13:06:33.459Z,20.51
2018-04-15T13:07:33.461Z,20.54
2018-04-15T13:08:33.449Z,20.58
2018-04-15T13:09:33.490Z,20.69
2018-04-15T13:10:33.464Z,20.72
2018-04-15T13:11:33.478Z,20.76
2018-04-15T13:12:33.483Z,20.87
2018-04-15T13:13:33.507Z,20.87
2018-04-15T13:14:34.310Z,20.39
2018-04-15T13:15:33.488Z,20.24
2018-04-15T13:16:33.491Z,19.95
2018-04-15T13:17:33.669Z,19.98
2018-04-15T13:18:33.506Z,19.81
2018-04-15T13:19:34.025Z,19.61
2018-04-15T13:20:33.530Z,19.54
2018-04-15T13:21:33.531Z,19.48